Time;durP1;ratioP1;P1;durP2;ratioP2;P2;SDS_P1;SDS_P2;PMS_P1;PMS_P2;Temp;Humidity;BMP_temperature;BMP_pressure;BME280_temperature;BME280_humidity;BME280_pressure;Samples;Min_cycle;Max_cycle;Signal;HPM_P1;HPM_P2
2024/05/08 00:01:31;;;;;;;4.30;1.88;;;;;;;13.60;100.00;102712.47;5426041;25;94853;-82
2024/05/08 00:03:58;;;;;;;4.70;1.73;;;;;;;13.53;100.00;102700.31;5424213;25;93782;-82
2024/05/08 00:06:23;;;;;;;5.18;2.10;;;;;;;13.59;100.00;102708.09;5426067;25;94607;-82
2024/05/08 00:08:49;;;;;;;4.90;2.15;;;;;;;13.51;100.00;102696.84;5422528;25;94622;-82
2024/05/08 00:11:14;;;;;;;3.70;1.73;;;;;;;13.56;100.00;102705.53;5429468;25;95710;-82
2024/05/08 00:13:39;;;;;;;3.88;2.03;;;;;;;13.58;100.00;102711.66;5424653;25;93799;-82
2024/05/08 00:16:05;;;;;;;4.38;1.80;;;;;;;13.58;100.00;102712.53;5425327;25;93897;-83
2024/05/08 00:18:31;;;;;;;4.30;1.95;;;;;;;13.59;100.00;102713.38;5421761;25;94694;-82
2024/05/08 00:20:56;;;;;;;4.47;1.90;;;;;;;13.60;100.00;102715.13;5426836;25;94606;-82
2024/05/08 00:23:22;;;;;;;4.32;2.10;;;;;;;13.43;100.00;102695.25;5423606;25;94620;-82
2024/05/08 00:25:47;;;;;;;5.03;1.80;;;;;;;13.52;100.00;102701.22;5425865;25;93877;-82
2024/05/08 00:28:12;;;;;;;6.10;2.08;;;;;;;13.57;100.00;102713.44;5428150;25;97534;-82
2024/05/08 00:30:38;;;;;;;5.15;1.90;;;;;;;13.60;100.00;102700.09;5434183;25;94756;-82
2024/05/08 00:33:06;;;;;;;5.43;2.00;;;;;;;13.51;100.00;102689.75;5423700;25;93890;-82
2024/05/08 00:35:31;;;;;;;5.47;1.52;;;;;;;13.56;100.00;102698.44;5416470;25;93906;-82
2024/05/08 00:37:56;;;;;;;5.22;2.00;;;;;;;13.61;100.00;102693.06;5424306;25;94784;-82
2024/05/08 00:40:22;;;;;;;6.10;2.13;;;;;;;13.64;100.00;102695.59;5422145;25;94443;-82
2024/05/08 00:42:53;;;;;;;4.10;2.08;;;;;;;13.62;100.00;102695.66;5422153;25;93878;-82
2024/05/08 00:45:19;;;;;;;5.90;2.38;;;;;;;13.58;100.00;102704.59;5425363;25;94369;-82
2024/05/08 00:47:48;;;;;;;4.40;1.90;;;;;;;13.56;100.00;102705.53;5423397;25;94701;-82
2024/05/08 00:50:14;;;;;;;4.13;1.70;;;;;;;13.56;100.00;102697.59;5425438;25;96861;-82
2024/05/08 00:52:40;;;;;;;3.83;1.88;;;;;;;13.58;100.00;102707.22;5429275;25;93754;-82
2024/05/08 00:55:07;;;;;;;5.90;2.13;;;;;;;13.58;100.00;102715.16;5455540;25;93977;-82
2024/05/08 00:57:36;;;;;;;5.97;2.13;;;;;;;13.46;100.00;102696.09;5425461;25;96898;-82
2024/05/08 01:00:02;;;;;;;3.00;1.60;;;;;;;13.51;100.00;102699.50;5433799;25;95022;-82
2024/05/08 01:02:28;;;;;;;3.67;1.67;;;;;;;13.50;100.00;102700.41;5429036;25;93858;-82
2024/05/08 01:04:53;;;;;;;5.35;1.95;;;;;;;13.36;100.00;102683.06;5435622;25;94006;-81
2024/05/08 01:07:20;;;;;;;4.63;1.80;;;;;;;13.44;100.00;102701.41;5439893;25;94907;-82
2024/05/08 01:09:46;;;;;;;3.35;1.80;;;;;;;13.50;100.00;102709.22;5424806;25;94241;-82
2024/05/08 01:12:18;;;;;;;4.80;1.75;;;;;;;13.47;100.00;102703.97;5426742;25;93800;-81
2024/05/08 01:14:43;;;;;;;5.28;2.03;;;;;;;13.48;100.00;102704.84;5431599;25;94018;-82
2024/05/08 01:17:09;;;;;;;4.68;1.83;;;;;;;13.33;100.00;102685.78;5426542;25;94569;-82
2024/05/08 01:19:36;;;;;;;5.22;2.20;;;;;;;13.37;100.00;102691.88;5426333;25;94555;-82
2024/05/08 01:22:01;;;;;;;4.32;2.05;;;;;;;13.40;100.00;102702.38;5425128;25;93796;-82
2024/05/08 01:24:27;;;;;;;5.35;1.80;;;;;;;13.41;100.00;102705.03;5428197;25;94088;-82
2024/05/08 01:26:52;;;;;;;4.82;1.80;;;;;;;13.27;100.00;102688.59;5423712;25;94584;-81
2024/05/08 01:29:18;;;;;;;5.90;1.80;;;;;;;13.40;100.00;102710.31;5422555;25;95882;-82
2024/05/08 01:31:45;;;;;;;4.57;2.33;;;;;;;13.36;100.00;102704.22;5422600;25;93778;-82
2024/05/08 01:34:10;;;;;;;4.45;2.10;;;;;;;13.27;100.00;102685.09;5418852;25;93914;-82
2024/05/08 01:36:36;;;;;;;2.85;1.65;;;;;;;13.34;100.00;102699.91;5423655;25;94837;-82
2024/05/08 01:39:01;;;;;;;3.22;2.00;;;;;;;13.36;100.00;102711.31;5425848;25;94616;-82
2024/05/08 01:41:26;;;;;;;3.95;2.05;;;;;;;13.36;100.00;102719.25;5427629;25;93832;-82
2024/05/08 01:43:52;;;;;;;4.57;2.08;;;;;;;13.28;100.00;102698.25;5414586;25;94045;-79
2024/05/08 01:46:17;;;;;;;5.70;2.50;;;;;;;13.24;100.00;102709.81;5422773;25;94496;-82
2024/05/08 01:48:42;;;;;;;4.38;2.08;;;;;;;13.36;100.00;102722.75;5425166;25;94982;-82
2024/05/08 01:51:08;;;;;;;5.78;2.55;;;;;;;13.38;100.00;102726.25;5420958;25;93801;-81
2024/05/08 01:53:38;;;;;;;7.30;2.47;;;;;;;13.39;100.00;102740.34;5428469;25;93814;-82
2024/05/08 01:56:04;;;;;;;5.05;2.53;;;;;;;13.32;100.00;102730.81;5395130;25;97646;-81
2024/05/08 01:58:29;;;;;;;5.22;2.08;;;;;;;13.30;100.00;102728.22;5424517;25;97595;-82
2024/05/08 02:00:55;;;;;;;3.70;1.88;;;;;;;13.28;100.00;102737.94;5423830;25;93798;-82
2024/05/08 02:03:20;;;;;;;5.35;2.03;;;;;;;13.29;100.00;102733.53;5424077;25;93805;-82
2024/05/08 02:05:46;;;;;;;4.03;2.63;;;;;;;13.15;100.00;102713.53;5425038;25;94611;-82
2024/05/08 02:08:12;;;;;;;6.43;2.67;;;;;;;13.30;100.00;102745.84;5426047;25;94654;-82
2024/05/08 02:10:37;;;;;;;4.43;1.85;;;;;;;13.26;100.00;102747.72;5424847;25;93739;-82
2024/05/08 02:13:03;;;;;;;5.38;2.60;;;;;;;13.23;100.00;102752.16;5428222;25;93932;-82
2024/05/08 02:15:29;;;;;;;6.63;2.60;;;;;;;13.25;100.00;102767.09;5424729;25;94812;-82
2024/05/08 02:17:54;;;;;;;7.30;3.05;;;;;;;13.23;100.00;102761.00;5418891;25;94182;-81
2024/05/08 02:20:19;;;;;;;8.80;3.20;;;;;;;13.12;100.00;102753.25;5426637;25;93868;-82
2024/05/08 02:22:45;;;;;;;5.72;3.40;;;;;;;13.13;100.00;102767.34;5420406;25;100294;-82
2024/05/08 02:25:10;;;;;;;6.75;3.58;;;;;;;13.08;100.00;102770.09;5420736;25;96522;-82
2024/05/08 02:27:35;;;;;;;5.72;3.15;;;;;;;13.03;100.00;102772.00;5425916;25;95915;-82
2024/05/08 02:30:01;;;;;;;7.38;3.70;;;;;;;12.99;100.00;102765.03;5424285;25;94412;-82
2024/05/08 02:32:26;;;;;;;5.80;3.25;;;;;;;12.90;100.00;102754.63;5427562;25;93878;-81
2024/05/08 02:34:54;;;;;;;5.40;3.00;;;;;;;12.91;100.00;102772.22;5422440;25;96463;-82
2024/05/08 02:37:20;;;;;;;8.48;3.53;;;;;;;12.88;100.00;102761.75;5423307;25;96524;-82
2024/05/08 02:39:45;;;;;;;5.78;3.33;;;;;;;12.86;100.00;102771.47;5420659;25;93976;-81
2024/05/08 02:42:11;;;;;;;8.00;3.10;;;;;;;12.78;100.00;102765.47;5425119;25;94490;-82
2024/05/08 02:44:36;;;;;;;6.57;3.70;;;;;;;12.79;100.00;102773.34;5422761;25;96911;-82
2024/05/08 02:47:01;;;;;;;8.75;3.80;;;;;;;12.67;100.00;102752.47;5424548;25;94493;-82
2024/05/08 02:49:27;;;;;;;7.10;3.05;;;;;;;12.69;100.00;102756.84;5424568;25;93909;-82
2024/05/08 02:51:52;;;;;;;7.28;3.25;;;;;;;12.74;100.00;102772.59;5424385;25;93929;-82
2024/05/08 02:54:18;;;;;;;8.00;3.08;;;;;;;12.70;100.00;102763.84;5426198;25;94787;-81
2024/05/08 02:56:43;;;;;;;8.18;3.83;;;;;;;12.56;100.00;102752.69;5420518;25;94548;-81
2024/05/08 02:59:08;;;;;;;8.10;3.55;;;;;;;12.66;100.00;102769.25;5414508;25;93809;-81
2024/05/08 03:01:34;;;;;;;8.38;3.47;;;;;;;12.69;100.00;102780.63;5424077;25;93976;-81
2024/05/08 03:03:59;;;;;;;7.00;3.70;;;;;;;12.69;100.00;102777.13;5429733;25;94578;-81
2024/05/08 03:06:25;;;;;;;6.13;3.42;;;;;;;12.64;100.00;102777.19;5425138;25;97246;-81
2024/05/08 03:08:51;;;;;;;8.55;3.60;;;;;;;12.59;100.00;102771.13;5425709;25;94861;-82
2024/05/08 03:11:23;;;;;;;6.38;3.10;;;;;;;12.63;100.00;102771.94;5422144;25;93859;-81
2024/05/08 03:13:48;;;;;;;7.78;3.33;;;;;;;12.67;100.00;102789.47;5426773;25;95544;-81
2024/05/08 03:16:21;;;;;;;6.72;3.40;;;;;;;12.66;100.00;102785.97;5428025;25;96357;-80
2024/05/08 03:18:48;;;;;;;7.00;3.40;;;;;;;12.61;100.00;102776.41;5422363;25;93940;-82
2024/05/08 03:21:14;;;;;;;7.60;3.90;;;;;;;12.66;100.00;102793.03;5429058;25;93763;-82
2024/05/08 03:23:39;;;;;;;7.65;4.20;;;;;;;12.61;100.00;102779.03;5424511;25;94342;-82
2024/05/08 03:26:05;;;;;;;7.75;3.60;;;;;;;12.65;100.00;102784.22;5424288;25;94718;-82
2024/05/08 03:28:31;;;;;;;6.90;3.90;;;;;;;12.63;100.00;102783.38;5423454;25;94882;-82
2024/05/08 03:30:57;;;;;;;9.07;4.32;;;;;;;12.62;100.00;102788.69;5424944;25;94555;-82
2024/05/08 03:33:22;;;;;;;8.65;4.25;;;;;;;12.59;100.00;102792.25;5424205;25;94462;-82
2024/05/08 03:35:48;;;;;;;8.43;4.47;;;;;;;12.62;100.00;102789.56;5422396;25;94371;-81
2024/05/08 03:38:13;;;;;;;11.63;4.32;;;;;;;12.59;100.00;102791.41;5429345;25;94370;-82
2024/05/08 03:40:38;;;;;;;8.77;4.10;;;;;;;12.62;100.00;102792.22;5424469;25;94009;-81
2024/05/08 03:43:05;;;;;;;7.72;4.18;;;;;;;12.66;100.00;102788.59;5427570;25;94911;-82
2024/05/08 03:45:31;;;;;;;10.85;5.07;;;;;;;12.59;100.00;102772.91;5457880;25;96384;-81
2024/05/08 03:47:56;;;;;;;9.55;4.32;;;;;;;12.68;100.00;102785.91;5427286;25;94397;-81
2024/05/08 03:50:24;;;;;;;8.68;3.85;;;;;;;12.59;100.00;102772.91;5426238;25;93935;-82
2024/05/08 03:52:50;;;;;;;9.77;4.65;;;;;;;12.65;100.00;102794.78;5427644;25;95622;-81
2024/05/08 03:55:15;;;;;;;8.32;3.92;;;;;;;12.66;100.00;102787.75;5420793;25;97208;-82
2024/05/08 03:57:40;;;;;;;9.50;4.20;;;;;;;12.62;100.00;102792.22;5423028;25;93822;-82
2024/05/08 04:00:06;;;;;;;7.45;3.35;;;;;;;12.50;100.00;102768.69;5422074;25;93913;-82
2024/05/08 04:02:32;;;;;;;9.82;3.70;;;;;;;12.62;100.00;102792.22;5424173;25;94626;-81
2024/05/08 04:04:57;;;;;;;7.82;4.40;;;;;;;12.60;100.00;102788.72;5425947;25;97213;-82
2024/05/08 04:07:22;;;;;;;6.63;3.92;;;;;;;12.58;100.00;102789.66;5422119;25;94010;-82
2024/05/08 04:09:48;;;;;;;7.45;3.80;;;;;;;12.60;100.00;102801.91;5426356;25;93807;-81
2024/05/08 04:12:13;;;;;;;8.60;4.10;;;;;;;12.55;100.00;102805.56;5425005;25;94484;-82
2024/05/08 04:14:38;;;;;;;10.32;3.78;;;;;;;12.41;100.00;102784.69;5423081;25;95796;-82
2024/05/08 04:17:04;;;;;;;7.78;3.53;;;;;;;12.52;100.00;102813.53;5428289;25;93907;-81
2024/05/08 04:19:29;;;;;;;8.23;3.75;;;;;;;12.57;100.00;102824.88;5420343;25;94028;-82
2024/05/08 04:21:55;;;;;;;8.82;4.43;;;;;;;12.54;100.00;102824.97;5421890;25;94741;-82
2024/05/08 04:24:20;;;;;;;9.85;4.60;;;;;;;12.57;100.00;102824.88;5426230;25;94355;-82
2024/05/08 04:26:46;;;;;;;8.98;4.00;;;;;;;12.42;100.00;102800.53;5428224;25;93815;-82
2024/05/08 04:29:11;;;;;;;11.15;5.43;;;;;;;12.51;100.00;102817.09;5426866;25;94400;-81
2024/05/08 04:31:36;;;;;;;12.38;4.47;;;;;;;12.55;100.00;102830.22;5424592;25;94413;-81
2024/05/08 04:34:02;;;;;;;11.40;5.13;;;;;;;12.51;100.00;102830.31;5429215;25;96030;-82
2024/05/08 04:36:27;;;;;;;12.95;4.90;;;;;;;12.56;100.00;102826.66;5425573;25;93782;-81
2024/05/08 04:38:53;;;;;;;10.05;4.85;;;;;;;12.37;100.00;102789.16;5427742;25;94033;-82
2024/05/08 04:41:22;;;;;;;12.10;5.30;;;;;;;12.53;100.00;102812.63;5426499;25;94376;-81
2024/05/08 04:43:48;;;;;;;9.95;4.90;;;;;;;12.40;100.00;102796.16;5427792;25;94296;-81
2024/05/08 04:46:13;;;;;;;12.52;5.05;;;;;;;12.60;100.00;102827.47;5422912;25;93801;-81
2024/05/08 04:48:41;;;;;;;12.65;5.85;;;;;;;12.34;100.00;102780.44;5421301;25;93936;-81
2024/05/08 04:51:06;;;;;;;10.05;5.18;;;;;;;12.35;100.00;102788.31;5422433;25;96482;-82
2024/05/08 04:53:32;;;;;;;11.85;4.88;;;;;;;12.27;100.00;102774.41;5422519;25;96324;-82
2024/05/08 04:55:57;;;;;;;10.05;5.28;;;;;;;12.57;100.00;102836.34;5425533;25;94197;-81
2024/05/08 04:58:25;;;;;;;17.48;5.40;;;;;;;12.54;100.00;102825.84;5424595;25;93968;-82
2024/05/08 05:00:51;;;;;;;12.10;5.20;;;;;;;12.62;100.00;102842.41;5418538;25;94455;-82
2024/05/08 05:03:16;;;;;;;10.13;4.43;;;;;;;12.45;100.00;102813.69;5423815;25;94452;-82
2024/05/08 05:05:42;;;;;;;9.25;4.90;;;;;;;12.59;100.00;102842.47;5427247;25;93784;-82
2024/05/08 05:08:12;;;;;;;9.68;5.25;;;;;;;12.59;100.00;102842.47;5423031;25;94393;-82
2024/05/08 05:10:37;;;;;;;9.55;4.10;;;;;;;12.61;100.00;102840.69;5424250;25;95824;-82
2024/05/08 05:13:03;;;;;;;9.98;5.28;;;;;;;12.62;100.00;102838.91;5423812;25;94615;-82
2024/05/08 05:15:28;;;;;;;12.75;4.93;;;;;;;12.52;100.00;102814.41;5424471;25;93855;-82
2024/05/08 05:17:54;;;;;;;14.20;5.25;;;;;;;12.63;100.00;102841.50;5424367;25;94102;-82
2024/05/08 05:20:19;;;;;;;11.98;5.35;;;;;;;12.44;100.00;102806.63;5419158;25;96240;-82
2024/05/08 05:22:44;;;;;;;13.18;5.43;;;;;;;12.52;100.00;102826.75;5425075;25;94148;-81
2024/05/08 05:25:10;;;;;;;11.05;4.72;;;;;;;12.63;100.00;102848.56;5422174;25;93806;-82
2024/05/08 05:27:35;;;;;;;13.57;4.88;;;;;;;12.64;100.00;102845.03;5423681;25;93965;-82
2024/05/08 05:30:02;;;;;;;12.13;4.97;;;;;;;12.44;100.00;102806.63;5427688;25;95588;-82
2024/05/08 05:35:11;;;;;;;12.88;5.60;;;;;;;12.68;100.00;102846.69;5427292;25;93811;-82
2024/05/08 05:37:37;;;;;;;11.07;5.07;;;;;;;12.70;100.00;102840.50;5424471;25;93927;-82
2024/05/08 05:40:02;;;;;;;9.77;4.50;;;;;;;12.67;100.00;102840.56;5428430;25;96672;-82
2024/05/08 05:48:11;;;;;;;13.35;5.38;;;;;;;12.58;100.00;102831.94;5416862;25;93799;-81
2024/05/08 05:50:36;;;;;;;14.00;5.22;;;;;;;12.52;100.00;102818.84;5392507;26;93857;-81
2024/05/08 05:53:02;;;;;;;12.85;5.97;;;;;;;12.57;100.00;102828.44;5392623;26;94737;-81
2024/05/08 05:55:28;;;;;;;13.52;5.10;;;;;;;12.55;100.00;102821.41;5392919;26;94728;-81
2024/05/08 05:57:56;;;;;;;16.40;4.95;;;;;;;12.81;100.00;102860.56;5416777;26;93852;-79
2024/05/08 06:00:21;;;;;;;13.68;5.10;;;;;;;12.75;100.00;102850.09;5393056;26;93890;-81
2024/05/08 06:02:47;;;;;;;13.45;5.10;;;;;;;12.63;100.00;102838.00;5394249;26;94807;-81
2024/05/08 06:05:12;;;;;;;9.93;4.47;;;;;;;12.70;100.00;102845.78;5392165;26;94452;-81
2024/05/08 06:07:39;;;;;;;12.00;4.25;;;;;;;12.81;100.00;102865.88;5394350;26;93792;-81
2024/05/08 06:10:05;;;;;;;16.60;5.90;;;;;;;12.81;100.00;102861.44;5393695;26;93885;-81
2024/05/08 06:12:30;;;;;;;13.43;3.92;;;;;;;12.82;100.00;102859.66;5394395;26;95486;-81
2024/05/08 06:14:56;;;;;;;13.00;4.07;;;;;;;12.89;100.00;102871.88;5392487;26;94295;-81
2024/05/08 06:17:21;;;;;;;12.15;3.90;;;;;;;12.90;100.00;102871.81;5392901;26;93817;-81
2024/05/08 06:19:47;;;;;;;9.25;3.25;;;;;;;12.87;100.00;102863.94;5423191;26;94039;-81
2024/05/08 06:22:12;;;;;;;9.20;4.25;;;;;;;12.91;100.00;102865.66;5394245;26;94624;-83
2024/05/08 06:24:38;;;;;;;10.50;3.85;;;;;;;12.85;100.00;102854.31;5392559;26;94635;-81
2024/05/08 06:27:03;;;;;;;9.82;3.97;;;;;;;13.01;100.00;102878.69;5392276;26;94676;-81
2024/05/08 06:29:29;;;;;;;8.02;3.50;;;;;;;13.03;100.00;102885.69;5394336;26;93889;-80
2024/05/08 06:31:57;;;;;;;9.75;3.67;;;;;;;13.05;100.00;102873.31;5391946;26;94474;-79
2024/05/08 06:34:23;;;;;;;10.43;3.72;;;;;;;13.02;100.00;102876.00;5391886;26;95288;-80
2024/05/08 06:36:48;;;;;;;8.35;3.58;;;;;;;13.11;100.00;102883.78;5394559;26;94644;-79
2024/05/08 06:39:14;;;;;;;7.70;2.97;;;;;;;13.08;100.00;102875.88;5392544;26;94841;-80
2024/05/08 06:41:41;;;;;;;7.78;3.53;;;;;;;13.10;100.00;102873.19;5392041;26;94578;-80
2024/05/08 06:44:06;;;;;;;7.45;3.58;;;;;;;13.16;100.00;102878.38;5391826;26;94884;-80
2024/05/08 06:46:41;;;;;;;7.38;4.05;;;;;;;13.15;100.00;102877.50;5391602;26;94649;-80
2024/05/08 06:49:06;;;;;;;;;;;;;;;13.17;100.00;102885.41;5393503;26;94738;-80
2024/05/08 06:51:32;;;;;;;9.00;3.40;;;;;;;13.13;100.00;102883.72;5393590;26;96113;-80
2024/05/08 06:53:58;;;;;;;7.22;3.45;;;;;;;13.14;100.00;102891.63;5391794;26;94936;-81
2024/05/08 06:56:24;;;;;;;7.65;2.88;;;;;;;13.01;100.00;102874.25;5391870;26;93900;-80
2024/05/08 06:58:49;;;;;;;8.00;3.20;;;;;;;12.98;100.00;102876.97;5380706;26;94700;-81
2024/05/08 07:01:15;;;;;;;6.20;3.10;;;;;;;13.11;100.00;102893.47;5378135;26;97004;-80
2024/05/08 07:03:40;;;;;;;7.70;2.90;;;;;;;13.12;100.00;102898.72;5405288;26;95246;-80
2024/05/08 07:06:06;;;;;;;7.00;3.08;;;;;;;13.17;100.00;102910.06;5377066;26;94615;-81
2024/05/08 07:08:32;;;;;;;6.70;3.40;;;;;;;13.19;100.00;102910.94;5378989;26;93956;-79
2024/05/08 07:10:57;;;;;;;6.55;2.67;;;;;;;13.16;100.00;102903.06;5376206;26;94676;-80
2024/05/08 07:13:27;;;;;;;5.32;2.58;;;;;;;13.00;100.00;102864.59;5378153;26;95467;-80
2024/05/08 07:15:52;;;;;;;3.78;1.70;;;;;;;13.13;100.00;102892.53;5374064;26;93775;-81
2024/05/08 07:18:18;;;;;;;3.13;1.30;;;;;;;13.25;100.00;102912.59;5376886;26;93996;-81
2024/05/08 07:20:43;;;;;;;2.70;1.33;;;;;;;13.25;100.00;102904.66;5378053;26;95003;-80
2024/05/08 07:23:09;;;;;;;4.45;1.65;;;;;;;13.09;100.00;102888.19;5377992;26;95567;-80
2024/05/08 07:25:34;;;;;;;3.97;1.65;;;;;;;13.25;100.00;102912.59;5406899;26;94428;-81
2024/05/08 07:27:59;;;;;;;5.45;1.63;;;;;;;13.32;100.00;102916.88;5376508;26;94036;-81
2024/05/08 07:30:28;;;;;;;4.30;1.30;;;;;;;13.36;100.00;102920.31;5406256;26;94401;-80
2024/05/08 07:32:53;;;;;;;3.60;1.65;;;;;;;13.36;100.00;102920.31;5375651;26;94586;-81
2024/05/08 07:35:20;;;;;;;6.25;2.25;;;;;;;13.44;100.00;102923.69;5377990;26;93822;-81
2024/05/08 07:37:45;;;;;;;4.80;1.92;;;;;;;13.51;100.00;102920.00;5375588;26;93874;-81
2024/05/08 07:40:11;;;;;;;4.53;1.80;;;;;;;13.56;100.00;102923.41;5376176;26;95033;-81
2024/05/08 07:42:40;;;;;;;8.73;2.40;;;;;;;13.57;100.00;102919.00;5376003;26;94791;-80
2024/05/08 07:45:06;;;;;;;5.50;2.45;;;;;;;13.54;100.00;102897.91;5357972;26;93798;-81
2024/05/08 07:47:31;;;;;;;7.78;3.20;;;;;;;13.76;100.00;102928.28;5373924;26;93999;-81
2024/05/08 07:49:57;;;;;;;6.07;3.17;;;;;;;13.78;100.00;102915.00;5375159;26;97212;-81
2024/05/08 07:52:22;;;;;;;7.05;3.40;;;;;;;13.71;100.00;102902.81;5375554;26;95114;-81
2024/05/08 07:54:47;;;;;;;8.00;3.72;;;;;;;13.81;100.00;102905.22;5377658;26;94801;-81
2024/05/08 07:57:13;;;;;;;8.10;3.97;;;;;;;13.90;100.00;102926.19;5406634;26;93931;-81
2024/05/08 07:59:38;;;;;;;10.10;4.57;;;;;;;13.93;100.00;102922.59;5375341;26;94997;-81
2024/05/08 08:02:04;;;;;;;9.82;3.60;;;;;;;13.87;100.00;102909.50;5376795;26;96065;-80
2024/05/08 08:04:29;;;;;;;12.52;5.22;;;;;;;13.79;100.00;102895.56;5378249;26;93871;-81
2024/05/08 08:06:58;;;;;;;9.63;3.90;;;;;;;13.77;100.00;102889.44;5376349;26;93895;-81
2024/05/08 08:09:23;;;;;;;9.38;3.67;;;;;;;13.71;100.00;102877.19;5374015;26;94362;-81
2024/05/08 08:11:48;;;;;;;8.55;3.42;;;;;;;13.84;100.00;102899.88;5376988;26;94510;-81
2024/05/08 08:14:14;;;;;;;8.93;3.47;;;;;;;13.86;100.00;102913.06;5376359;26;93785;-81
2024/05/08 08:16:39;;;;;;;12.80;4.40;;;;;;;13.61;100.00;102873.91;5376248;26;93897;-81
2024/05/08 08:19:06;;;;;;;12.70;5.32;;;;;;;13.86;100.00;102921.88;5375787;26;94661;-81
2024/05/08 08:21:31;;;;;;;11.48;4.35;;;;;;;13.86;100.00;102916.56;5377608;26;94946;-81
2024/05/08 08:23:56;;;;;;;8.43;4.40;;;;;;;13.82;100.00;102904.31;5376240;26;93772;-81
2024/05/08 08:26:22;;;;;;;11.05;3.90;;;;;;;13.67;100.00;102878.19;5369791;26;93952;-81
2024/05/08 08:28:47;;;;;;;9.65;4.03;;;;;;;13.80;100.00;102905.22;5375216;26;96762;-81
2024/05/08 08:31:13;;;;;;;12.73;5.05;;;;;;;13.85;100.00;102919.25;5375335;26;94864;-81
2024/05/08 08:33:38;;;;;;;13.48;6.07;;;;;;;13.62;100.00;102886.22;5376324;26;94110;-81
2024/05/08 08:36:04;;;;;;;11.93;5.20;;;;;;;13.80;100.00;102916.72;5376340;26;94104;-81
2024/05/08 08:38:33;;;;;;;11.70;5.38;;;;;;;13.63;100.00;102892.38;5377437;26;94764;-81
2024/05/08 08:41:03;;;;;;;13.07;5.43;;;;;;;13.76;100.00;102908.84;5378301;26;95012;-81
2024/05/08 08:43:29;;;;;;;14.65;6.63;;;;;;;13.60;100.00;102890.69;5410876;25;93856;-85
2024/05/08 08:45:56;;;;;;;14.52;5.40;;;;;;;13.75;100.00;102907.13;5401337;21;97594;-87
2024/05/08 08:48:23;;;;;;;10.13;4.45;;;;;;;13.79;100.00;102907.03;5369305;26;94848;-87
2024/05/08 08:50:52;;;;;;;12.23;5.15;;;;;;;13.84;100.00;102915.75;5364456;26;94738;-86
2024/05/08 08:53:21;;;;;;;11.15;5.35;;;;;;;13.87;100.00;102909.50;5361977;26;93791;-85
2024/05/08 08:55:47;;;;;;;15.45;4.82;;;;;;;13.83;100.00;102898.09;5370025;26;93940;-85
2024/05/08 08:58:15;;;;;;;12.70;5.05;;;;;;;13.89;100.00;102913.00;5361035;26;95862;-85
2024/05/08 09:00:42;;;;;;;14.65;5.10;;;;;;;13.92;100.00;102915.56;5355525;26;96367;-86
2024/05/08 09:03:14;;;;;;;11.73;4.90;;;;;;;13.83;100.00;102907.81;5390756;26;94475;-87
2024/05/08 09:05:42;;;;;;;10.75;4.72;;;;;;;13.77;100.00;102907.97;5371576;26;94041;-85
2024/05/08 09:08:11;;;;;;;12.10;4.97;;;;;;;13.80;100.00;102913.19;5370415;26;94912;-86
2024/05/08 09:10:36;;;;;;;12.93;4.55;;;;;;;13.78;100.00;102926.47;5355748;26;96308;-86
2024/05/08 09:13:02;;;;;;;10.57;3.92;;;;;;;13.82;100.00;102933.44;5359180;26;94070;-86
2024/05/08 09:15:28;;;;;;;9.48;4.22;;;;;;;13.83;100.00;102934.31;5358988;26;94008;-86
2024/05/08 09:17:54;;;;;;;9.65;3.80;;;;;;;13.73;100.00;102923.06;5357504;26;94397;-86
2024/05/08 09:20:20;;;;;;;10.50;4.28;;;;;;;13.70;100.00;102909.88;5358754;26;95551;-86
2024/05/08 09:22:45;;;;;;;10.68;3.80;;;;;;;13.70;100.00;102904.59;5362289;26;93980;-86
2024/05/08 09:25:10;;;;;;;6.65;2.97;;;;;;;13.87;100.00;102936.84;5359761;26;94939;-86
2024/05/08 09:27:37;;;;;;;4.40;2.25;;;;;;;13.72;100.00;102912.47;5360813;26;94634;-86
2024/05/08 09:30:09;;;;;;;7.53;2.80;;;;;;;13.68;100.00;102899.34;5356587;26;94439;-85
2024/05/08 09:32:35;;;;;;;6.60;2.63;;;;;;;13.84;100.00;102920.19;5360464;26;93994;-85
2024/05/08 09:35:00;;;;;;;6.93;2.67;;;;;;;13.73;100.00;102907.19;5358990;26;93948;-85
2024/05/08 09:37:26;;;;;;;6.28;2.40;;;;;;;13.86;100.00;102928.94;5370072;26;94375;-86
2024/05/08 09:39:56;;;;;;;6.78;2.00;;;;;;;13.83;100.00;102929.88;5358478;26;94312;-87
2024/05/08 09:42:21;;;;;;;6.13;2.42;;;;;;;13.75;100.00;102923.88;5370810;26;93855;-87
2024/05/08 09:44:48;;;;;;;7.28;3.05;;;;;;;13.77;100.00;102930.03;5358237;26;93999;-86
2024/05/08 09:47:17;;;;;;;5.20;2.80;;;;;;;13.78;100.00;102949.44;5356812;26;94653;-86
2024/05/08 09:49:52;;;;;;;5.55;2.92;;;;;;;13.63;100.00;102930.31;5360080;26;95980;-86
2024/05/08 09:52:20;;;;;;;6.15;3.28;;;;;;;13.60;100.00;102927.72;5356603;26;94234;-85
2024/05/08 09:54:51;;;;;;;9.05;3.30;;;;;;;13.61;100.00;102945.38;5371733;26;93881;-84
2024/05/08 09:57:18;;;;;;;7.18;3.72;;;;;;;13.50;100.00;102931.50;5378603;25;97690;-83
2024/05/08 09:59:45;;;;;;;7.75;3.33;;;;;;;13.39;100.00;102930.84;5357179;26;94739;-83
2024/05/08 10:02:12;;;;;;;9.25;3.35;;;;;;;13.49;100.00;102955.31;5368197;26;95564;-84
2024/05/08 10:04:38;;;;;;;7.80;3.63;;;;;;;13.48;100.00;102957.09;5358843;26;94108;-84
2024/05/08 10:07:04;;;;;;;9.00;3.80;;;;;;;13.37;100.00;102933.50;5383442;26;97149;-84
2024/05/08 10:09:31;;;;;;;7.07;3.35;;;;;;;13.39;100.00;102942.28;5361206;26;94975;-85
2024/05/08 10:12:02;;;;;;;8.85;3.38;;;;;;;13.52;100.00;102960.56;5354665;26;94063;-85
2024/05/08 10:14:32;;;;;;;5.85;3.22;;;;;;;13.42;100.00;102933.44;5374401;26;99460;-86
2024/05/08 10:17:10;;;;;;;8.07;3.53;;;;;;;13.50;100.00;102957.97;5364718;26;94750;-85
2024/05/08 10:19:54;;;;;;;6.93;3.13;;;;;;;13.38;100.00;102937.06;5387161;26;94534;-84
2024/05/08 10:22:23;;;;;;;;;;;;;;;13.51;100.00;102949.09;5382087;26;94858;-85
2024/05/08 10:24:49;;;;;;;10.23;3.50;;;;;;;13.51;100.00;102948.25;5385553;26;94045;-85
2024/05/08 10:27:15;;;;;;;9.95;4.05;;;;;;;13.55;100.00;102947.28;5356706;26;95783;-85
2024/05/08 10:29:40;;;;;;;10.00;4.78;;;;;;;13.59;100.00;102948.94;5357152;26;94395;-81
2024/05/08 10:32:08;;;;;;;8.65;3.53;;;;;;;13.60;100.00;102948.91;5357678;26;94553;-81
2024/05/08 10:34:33;;;;;;;6.32;3.05;;;;;;;13.63;100.00;102953.28;5390130;26;94190;-80
2024/05/08 10:37:02;;;;;;;7.22;3.80;;;;;;;13.55;100.00;102934.03;5356504;26;94362;-80
2024/05/08 10:39:30;;;;;;;9.20;4.20;;;;;;;13.61;100.00;102937.44;5359425;26;96171;-81
2024/05/08 10:41:56;;;;;;;8.27;3.72;;;;;;;13.77;100.00;102953.84;5358537;26;93841;-81
2024/05/08 10:44:21;;;;;;;9.00;3.35;;;;;;;13.77;100.00;102959.16;5359996;26;94153;-81
2024/05/08 10:46:47;;;;;;;8.70;2.85;;;;;;;13.78;100.00;102960.00;5356658;26;97196;-80
2024/05/08 10:49:12;;;;;;;7.55;3.55;;;;;;;13.78;100.00;102957.38;5358442;26;95617;-81
2024/05/08 10:51:38;;;;;;;10.32;4.55;;;;;;;13.79;100.00;102954.69;5359774;26;93887;-81
2024/05/08 10:54:12;;;;;;;6.88;3.70;;;;;;;13.81;100.00;102957.31;5358230;26;94088;-81
2024/05/08 10:56:38;;;;;;;11.67;4.20;;;;;;;13.72;100.00;102941.59;5361051;26;95103;-81
2024/05/08 10:59:10;;;;;;;8.60;3.30;;;;;;;13.72;100.00;102941.59;5359343;26;95612;-80
2024/05/08 11:01:47;;;;;;;9.10;3.28;;;;;;;13.80;100.00;102960.84;5363169;26;94931;-80
2024/05/08 11:04:25;;;;;;;9.38;3.08;;;;;;;13.79;100.00;102961.75;5363114;26;94043;-81
2024/05/08 11:07:00;;;;;;;6.20;2.95;;;;;;;13.80;100.00;102952.91;5358507;26;94437;-81
2024/05/08 11:09:26;;;;;;;10.15;2.80;;;;;;;13.78;100.00;102955.59;5358439;26;94813;-81
2024/05/08 11:11:52;;;;;;;7.45;2.70;;;;;;;13.79;100.00;102952.03;5388974;26;93826;-81
2024/05/08 11:14:23;;;;;;;7.45;2.72;;;;;;;13.73;100.00;102938.94;5386802;26;94055;-81
2024/05/08 11:16:51;;;;;;;7.82;3.50;;;;;;;13.87;100.00;102958.03;5361505;26;95583;-81
2024/05/08 11:19:16;;;;;;;7.85;3.15;;;;;;;13.92;100.00;102952.66;5360922;26;94879;-81